sensor_id;sensor_type;location;lat;lon;timestamp;pressure;altitude;pressure_sealevel;temperature;humidity
38227;BME280;24026;49.446;8.576;2023-03-22T00:01:37;100325.13;;;15.07;50.44
38227;BME280;24026;49.446;8.576;2023-03-22T00:04:00;100322.16;;;15.09;50.27
38227;BME280;24026;49.446;8.576;2023-03-22T00:06:20;100322.97;;;15.09;50.06
38227;BME280;24026;49.446;8.576;2023-03-22T00:08:41;100324.03;;;15.08;50.31
38227;BME280;24026;49.446;8.576;2023-03-22T00:11:02;100326.69;;;15.08;50.31
38227;BME280;24026;49.446;8.576;2023-03-22T00:13:23;100319.75;;;15.07;50.01
38227;BME280;24026;49.446;8.576;2023-03-22T00:15:43;100317.88;;;15.08;50.37
38227;BME280;24026;49.446;8.576;2023-03-22T00:18:04;100323.25;;;15.08;50.16
38227;BME280;24026;49.446;8.576;2023-03-22T00:20:25;100322.44;;;15.07;50.29
38227;BME280;24026;49.446;8.576;2023-03-22T00:22:49;100317.88;;;15.08;50.17
38227;BME280;24026;49.446;8.576;2023-03-22T00:25:10;100321.34;;;15.08;50.25
38227;BME280;24026;49.446;8.576;2023-03-22T00:27:31;100314.69;;;15.06;50.19
38227;BME280;24026;49.446;8.576;2023-03-22T00:29:51;100307.72;;;15.05;50.34
38227;BME280;24026;49.446;8.576;2023-03-22T00:32:11;100313.06;;;15.05;50.27
38227;BME280;24026;49.446;8.576;2023-03-22T00:34:32;100310.41;;;15.05;50.24
38227;BME280;24026;49.446;8.576;2023-03-22T00:36:52;100310.41;;;15.05;50.30
38227;BME280;24026;49.446;8.576;2023-03-22T00:39:15;100294.88;;;15.01;50.47
38227;BME280;24026;49.446;8.576;2023-03-22T00:41:35;100301.31;;;15.00;50.27
38227;BME280;24026;49.446;8.576;2023-03-22T00:43:56;100295.69;;;15.02;50.35
38227;BME280;24026;49.446;8.576;2023-03-22T00:46:18;100293.03;;;15.02;50.30
38227;BME280;24026;49.446;8.576;2023-03-22T00:48:39;100284.16;;;15.01;50.43
38227;BME280;24026;49.446;8.576;2023-03-22T00:50:59;100284.44;;;15.00;50.42
38227;BME280;24026;49.446;8.576;2023-03-22T00:53:20;100283.66;;;14.99;50.41
38227;BME280;24026;49.446;8.576;2023-03-22T00:55:42;100291.41;;;15.01;50.64
38227;BME280;24026;49.446;8.576;2023-03-22T00:58:02;100289.00;;;14.99;50.36
38227;BME280;24026;49.446;8.576;2023-03-22T01:00:23;100283.66;;;14.99;50.24
38227;BME280;24026;49.446;8.576;2023-03-22T01:02:44;100272.94;;;14.99;50.34
38227;BME280;24026;49.446;8.576;2023-03-22T01:05:05;100270.00;;;15.01;50.37
38227;BME280;24026;49.446;8.576;2023-03-22T01:07:26;100261.19;;;15.00;50.26
38227;BME280;24026;49.446;8.576;2023-03-22T01:09:47;100263.03;;;15.00;50.37
38227;BME280;24026;49.446;8.576;2023-03-22T01:12:07;100266.00;;;14.98;50.33
38227;BME280;24026;49.446;8.576;2023-03-22T01:14:28;100254.75;;;14.96;50.47
38227;BME280;24026;49.446;8.576;2023-03-22T01:16:51;100258.53;;;14.95;50.41
38227;BME280;24026;49.446;8.576;2023-03-22T01:19:16;100262.00;;;14.96;49.98
38227;BME280;24026;49.446;8.576;2023-03-22T01:21:36;100256.38;;;14.97;50.30
38227;BME280;24026;49.446;8.576;2023-03-22T01:23:57;100257.69;;;14.95;50.46
38227;BME280;24026;49.446;8.576;2023-03-22T01:26:17;100253.97;;;14.96;50.47
38227;BME280;24026;49.446;8.576;2023-03-22T01:28:38;100247.81;;;14.95;50.25
38227;BME280;24026;49.446;8.576;2023-03-22T01:31:00;100244.31;;;14.95;50.36
38227;BME280;24026;49.446;8.576;2023-03-22T01:33:21;100246.72;;;14.96;50.31
38227;BME280;24026;49.446;8.576;2023-03-22T01:35:42;100246.72;;;14.96;50.33
38227;BME280;24026;49.446;8.576;2023-03-22T01:38:02;100244.31;;;14.95;50.58
38227;BME280;24026;49.446;8.576;2023-03-22T01:40:22;100243.53;;;14.94;50.17
38227;BME280;24026;49.446;8.576;2023-03-22T01:42:43;100251.56;;;14.94;50.52
38227;BME280;24026;49.446;8.576;2023-03-22T01:47:33;100243.00;;;14.92;50.51
38227;BME280;24026;49.446;8.576;2023-03-22T01:49:54;100249.44;;;14.91;50.43
38227;BME280;24026;49.446;8.576;2023-03-22T01:52:15;100248.38;;;14.92;50.59
38227;BME280;24026;49.446;8.576;2023-03-22T01:54:47;100248.13;;;14.89;50.40
38227;BME280;24026;49.446;8.576;2023-03-22T01:57:10;100240.06;;;14.94;50.51
38227;BME280;24026;49.446;8.576;2023-03-22T01:59:31;100244.59;;;14.93;50.38
38227;BME280;24026;49.446;8.576;2023-03-22T02:01:51;100241.91;;;14.93;50.37
38227;BME280;24026;49.446;8.576;2023-03-22T02:04:18;100251.84;;;14.93;50.52
38227;BME280;24026;49.446;8.576;2023-03-22T02:06:42;100243.81;;;14.93;50.45
38227;BME280;24026;49.446;8.576;2023-03-22T02:09:08;100242.22;;;14.92;50.55
38227;BME280;24026;49.446;8.576;2023-03-22T02:11:39;100240.34;;;14.92;50.44
38227;BME280;24026;49.446;8.576;2023-03-22T02:17:16;100239.81;;;14.90;50.60
38227;BME280;24026;49.446;8.576;2023-03-22T02:19:49;100234.75;;;14.89;50.55
38227;BME280;24026;49.446;8.576;2023-03-22T02:25:00;100234.75;;;14.89;50.57
38227;BME280;24026;49.446;8.576;2023-03-22T02:43:36;100215.22;;;14.83;50.83
38227;BME280;24026;49.446;8.576;2023-03-22T02:46:11;100220.56;;;14.83;50.81
38227;BME280;24026;49.446;8.576;2023-03-22T02:48:42;100224.56;;;14.86;50.70
38227;BME280;24026;49.446;8.576;2023-03-22T02:51:18;100217.59;;;14.85;50.63
38227;BME280;24026;49.446;8.576;2023-03-22T02:56:09;100211.19;;;14.86;50.75
38227;BME280;24026;49.446;8.576;2023-03-22T02:58:35;100216.81;;;14.84;50.69
38227;BME280;24026;49.446;8.576;2023-03-22T03:01:02;100214.16;;;14.84;50.68
38227;BME280;24026;49.446;8.576;2023-03-22T03:03:26;100208.00;;;14.84;50.85
38227;BME280;24026;49.446;8.576;2023-03-22T03:05:53;100213.63;;;14.82;50.88
38227;BME280;24026;49.446;8.576;2023-03-22T03:08:15;100209.34;;;14.81;50.87
38227;BME280;24026;49.446;8.576;2023-03-22T03:10:39;100203.97;;;14.81;50.92
38227;BME280;24026;49.446;8.576;2023-03-22T03:13:00;100198.13;;;14.79;51.02
38227;BME280;24026;49.446;8.576;2023-03-22T03:15:21;100198.91;;;14.79;50.90
38227;BME280;24026;49.446;8.576;2023-03-22T03:17:53;100202.09;;;14.81;50.95
38227;BME280;24026;49.446;8.576;2023-03-22T03:20:28;100193.56;;;14.79;50.93
38227;BME280;24026;49.446;8.576;2023-03-22T03:22:56;100203.47;;;14.79;50.96
38227;BME280;24026;49.446;8.576;2023-03-22T03:30:28;100206.13;;;14.79;50.75
38227;BME280;24026;49.446;8.576;2023-03-22T03:32:53;100212.28;;;14.79;50.90
38227;BME280;24026;49.446;8.576;2023-03-22T03:35:24;100215.22;;;14.78;51.11
38227;BME280;24026;49.446;8.576;2023-03-22T03:37:56;100206.69;;;14.76;50.87
38227;BME280;24026;49.446;8.576;2023-03-22T03:40:42;100217.66;;;14.74;51.00
38227;BME280;24026;49.446;8.576;2023-03-22T03:43:04;100209.09;;;14.77;50.96
38227;BME280;24026;49.446;8.576;2023-03-22T03:45:26;100208.81;;;14.79;50.93
38227;BME280;24026;49.446;8.576;2023-03-22T03:47:48;100216.84;;;14.79;50.94
38227;BME280;24026;49.446;8.576;2023-03-22T03:50:17;100207.19;;;14.78;50.91
38227;BME280;24026;49.446;8.576;2023-03-22T03:52:38;100202.13;;;14.76;50.99
38227;BME280;24026;49.446;8.576;2023-03-22T03:54:58;100198.66;;;14.76;50.98
38227;BME280;24026;49.446;8.576;2023-03-22T03:57:19;100208.59;;;14.70;51.18
38227;BME280;24026;49.446;8.576;2023-03-22T03:59:39;100199.47;;;14.71;50.97
38227;BME280;24026;49.446;8.576;2023-03-22T04:01:59;100192.50;;;14.75;50.93
38227;BME280;24026;49.446;8.576;2023-03-22T04:04:26;100196.53;;;14.73;51.02
38227;BME280;24026;49.446;8.576;2023-03-22T04:06:47;100190.91;;;14.74;51.00
38227;BME280;24026;49.446;8.576;2023-03-22T04:09:07;100195.22;;;14.70;50.99
38227;BME280;24026;49.446;8.576;2023-03-22T04:11:28;100189.28;;;14.73;50.90
38227;BME280;24026;49.446;8.576;2023-03-22T04:13:48;100191.72;;;14.70;50.87
38227;BME280;24026;49.446;8.576;2023-03-22T04:16:08;100182.91;;;14.69;50.88
38227;BME280;24026;49.446;8.576;2023-03-22T04:18:29;100189.88;;;14.70;51.08
38227;BME280;24026;49.446;8.576;2023-03-22T04:20:49;100187.72;;;14.72;50.95
38227;BME280;24026;49.446;8.576;2023-03-22T04:23:12;100180.78;;;14.66;51.17
38227;BME280;24026;49.446;8.576;2023-03-22T04:25:32;100184.22;;;14.67;51.16
38227;BME280;24026;49.446;8.576;2023-03-22T04:27:56;100178.88;;;14.67;51.13
38227;BME280;24026;49.446;8.576;2023-03-22T04:30:19;100174.34;;;14.67;51.02
38227;BME280;24026;49.446;8.576;2023-03-22T04:32:41;100177.31;;;14.66;51.25
38227;BME280;24026;49.446;8.576;2023-03-22T04:35:02;100180.78;;;14.66;51.00
38227;BME280;24026;49.446;8.576;2023-03-22T04:37:23;100171.94;;;14.66;50.99
38227;BME280;24026;49.446;8.576;2023-03-22T04:39:46;100170.59;;;14.63;51.13
38227;BME280;24026;49.446;8.576;2023-03-22T04:42:07;100164.47;;;14.62;51.19
38227;BME280;24026;49.446;8.576;2023-03-22T04:44:28;100163.94;;;14.60;50.93
38227;BME280;24026;49.446;8.576;2023-03-22T04:46:48;100165.53;;;14.56;51.11
38227;BME280;24026;49.446;8.576;2023-03-22T04:49:08;100161.78;;;14.57;51.25
38227;BME280;24026;49.446;8.576;2023-03-22T04:51:29;100168.47;;;14.60;51.21
38227;BME280;24026;49.446;8.576;2023-03-22T04:53:51;100168.75;;;14.63;51.20
38227;BME280;24026;49.446;8.576;2023-03-22T04:56:13;100166.09;;;14.63;50.92
38227;BME280;24026;49.446;8.576;2023-03-22T04:58:36;100160.47;;;14.65;50.78
38227;BME280;24026;49.446;8.576;2023-03-22T05:00:57;100166.09;;;14.63;51.06
38227;BME280;24026;49.446;8.576;2023-03-22T05:03:19;100167.16;;;14.62;51.06
38227;BME280;24026;49.446;8.576;2023-03-22T05:05:39;100166.34;;;14.62;51.04
38227;BME280;24026;49.446;8.576;2023-03-22T05:08:08;100167.69;;;14.59;51.15
38227;BME280;24026;49.446;8.576;2023-03-22T05:10:28;100170.34;;;14.59;51.08
38227;BME280;24026;49.446;8.576;2023-03-22T05:12:48;100171.16;;;14.60;51.02
38227;BME280;24026;49.446;8.576;2023-03-22T05:15:09;100169.31;;;14.60;51.00
38227;BME280;24026;49.446;8.576;2023-03-22T05:17:30;100173.81;;;14.60;51.01
38227;BME280;24026;49.446;8.576;2023-03-22T05:19:50;100176.50;;;14.60;51.14
38227;BME280;24026;49.446;8.576;2023-03-22T05:22:11;100181.84;;;14.55;51.10
38227;BME280;24026;49.446;8.576;2023-03-22T05:24:33;100177.03;;;14.57;51.04
38227;BME280;24026;49.446;8.576;2023-03-22T05:26:53;100173.28;;;14.58;51.00
38227;BME280;24026;49.446;8.576;2023-03-22T05:29:13;100172.50;;;14.52;51.11
38227;BME280;24026;49.446;8.576;2023-03-22T05:31:34;100177.59;;;14.54;50.88
38227;BME280;24026;49.446;8.576;2023-03-22T05:33:54;100171.97;;;14.55;50.97
38227;BME280;24026;49.446;8.576;2023-03-22T05:36:16;100172.75;;;14.56;51.03
38227;BME280;24026;49.446;8.576;2023-03-22T05:38:37;100176.75;;;14.53;51.05
38227;BME280;24026;49.446;8.576;2023-03-22T05:40:58;100184.25;;;14.51;51.01
38227;BME280;24026;49.446;8.576;2023-03-22T05:43:18;100182.94;;;14.54;50.86
38227;BME280;24026;49.446;8.576;2023-03-22T05:45:39;100184.78;;;14.53;51.05
38227;BME280;24026;49.446;8.576;2023-03-22T05:47:59;100184.78;;;14.53;50.88
38227;BME280;24026;49.446;8.576;2023-03-22T05:50:21;100189.88;;;14.50;51.01
38227;BME280;24026;49.446;8.576;2023-03-22T05:52:42;100199.78;;;14.49;50.92
38227;BME280;24026;49.446;8.576;2023-03-22T05:55:04;100188.56;;;14.52;50.88
38227;BME280;24026;49.446;8.576;2023-03-22T05:57:26;100194.69;;;14.53;50.95
38227;BME280;24026;49.446;8.576;2023-03-22T05:59:49;100190.69;;;14.50;50.69
38227;BME280;24026;49.446;8.576;2023-03-22T06:02:13;100199.50;;;14.51;50.99
38227;BME280;24026;49.446;8.576;2023-03-22T06:04:33;100194.69;;;14.53;50.87
38227;BME280;24026;49.446;8.576;2023-03-22T06:06:53;100204.31;;;14.54;50.95
38227;BME280;24026;49.446;8.576;2023-03-22T06:09:14;100194.41;;;14.54;50.75
38227;BME280;24026;49.446;8.576;2023-03-22T06:11:35;100199.00;;;14.59;50.47
38227;BME280;24026;49.446;8.576;2023-03-22T06:13:55;100201.41;;;14.60;50.56
38227;BME280;24026;49.446;8.576;2023-03-22T06:16:16;100196.84;;;14.61;50.77
38227;BME280;24026;49.446;8.576;2023-03-22T06:18:36;100205.66;;;14.61;50.87
38227;BME280;24026;49.446;8.576;2023-03-22T06:20:57;100200.59;;;14.65;50.54
38227;BME280;24026;49.446;8.576;2023-03-22T06:23:21;100198.44;;;14.67;50.89
38227;BME280;24026;49.446;8.576;2023-03-22T06:25:41;100201.88;;;14.73;50.41
38227;BME280;24026;49.446;8.576;2023-03-22T06:28:02;100204.00;;;14.76;50.31
38227;BME280;24026;49.446;8.576;2023-03-22T06:30:23;100201.06;;;14.77;50.75
38227;BME280;24026;49.446;8.576;2023-03-22T06:32:44;100205.34;;;14.78;50.48
38227;BME280;24026;49.446;8.576;2023-03-22T06:35:05;100202.91;;;14.82;50.23
38227;BME280;24026;49.446;8.576;2023-03-22T06:37:25;100198.09;;;14.84;50.17
38227;BME280;24026;49.446;8.576;2023-03-22T06:39:46;100193.00;;;14.82;50.26
38227;BME280;24026;49.446;8.576;2023-03-22T06:42:07;100195.16;;;14.86;50.21
38227;BME280;24026;49.446;8.576;2023-03-22T06:44:27;100198.59;;;14.86;50.24
38227;BME280;24026;49.446;8.576;2023-03-22T06:46:48;100204.47;;;14.88;50.19
38227;BME280;24026;49.446;8.576;2023-03-22T06:49:08;100203.16;;;14.86;50.22
38227;BME280;24026;49.446;8.576;2023-03-22T06:51:29;100197.09;;;14.64;50.50
38227;BME280;24026;49.446;8.576;2023-03-22T06:53:50;100200.03;;;14.63;50.45
38227;BME280;24026;49.446;8.576;2023-03-22T06:56:10;100202.41;;;14.70;50.11
38227;BME280;24026;49.446;8.576;2023-03-22T06:58:31;100199.78;;;14.59;50.57
38227;BME280;24026;49.446;8.576;2023-03-22T07:00:51;100204.06;;;14.55;50.63
38227;BME280;24026;49.446;8.576;2023-03-22T07:03:14;100204.56;;;14.57;50.60
38227;BME280;24026;49.446;8.576;2023-03-22T07:05:34;100216.63;;;14.70;50.15
38227;BME280;24026;49.446;8.576;2023-03-22T07:07:54;100213.66;;;14.77;50.06
38227;BME280;24026;49.446;8.576;2023-03-22T07:10:15;100210.94;;;14.82;49.93
38227;BME280;24026;49.446;8.576;2023-03-22T07:12:35;100213.06;;;14.90;49.72
38227;BME280;24026;49.446;8.576;2023-03-22T07:14:56;100213.31;;;14.94;49.57
38227;BME280;24026;49.446;8.576;2023-03-22T07:17:16;100222.09;;;14.99;49.56
38227;BME280;24026;49.446;8.576;2023-03-22T07:19:36;100217.78;;;15.09;49.39
38227;BME280;24026;49.446;8.576;2023-03-22T07:21:57;100221.75;;;15.16;49.25
38227;BME280;24026;49.446;8.576;2023-03-22T07:24:17;100224.41;;;15.16;49.28
38227;BME280;24026;49.446;8.576;2023-03-22T07:26:38;100219.88;;;15.17;49.21
38227;BME280;24026;49.446;8.576;2023-03-22T07:28:59;100223.09;;;15.19;49.34
38227;BME280;24026;49.446;8.576;2023-03-22T07:31:19;100227.88;;;15.22;49.26
38227;BME280;24026;49.446;8.576;2023-03-22T07:33:40;100220.88;;;15.26;49.21
38227;BME280;24026;49.446;8.576;2023-03-22T07:36:01;100228.94;;;15.26;49.31
38227;BME280;24026;49.446;8.576;2023-03-22T07:38:21;100228.09;;;15.31;48.86
38227;BME280;24026;49.446;8.576;2023-03-22T07:40:41;100229.13;;;15.35;48.91
38227;BME280;24026;49.446;8.576;2023-03-22T07:43:02;100223.75;;;15.40;48.96
38227;BME280;24026;49.446;8.576;2023-03-22T07:45:22;100228.88;;;15.36;48.97
38227;BME280;24026;49.446;8.576;2023-03-22T07:47:43;100227.25;;;15.41;49.00
38227;BME280;24026;49.446;8.576;2023-03-22T07:50:04;100228.56;;;15.43;48.92
38227;BME280;24026;49.446;8.576;2023-03-22T07:52:24;100224.25;;;15.47;48.95
38227;BME280;24026;49.446;8.576;2023-03-22T07:54:45;100214.84;;;15.50;48.94
38227;BME280;24026;49.446;8.576;2023-03-22T07:57:05;100217.25;;;15.51;48.92
38227;BME280;24026;49.446;8.576;2023-03-22T07:59:26;100220.16;;;15.55;48.76
38227;BME280;24026;49.446;8.576;2023-03-22T08:01:46;100221.22;;;15.59;48.74
38227;BME280;24026;49.446;8.576;2023-03-22T08:04:07;100227.09;;;15.61;48.67
38227;BME280;24026;49.446;8.576;2023-03-22T08:06:28;100218.28;;;15.61;48.93
38227;BME280;24026;49.446;8.576;2023-03-22T08:08:48;100229.22;;;15.64;48.71
38227;BME280;24026;49.446;8.576;2023-03-22T08:11:09;100213.94;;;15.65;48.84
38227;BME280;24026;49.446;8.576;2023-03-22T08:13:32;100213.41;;;15.68;48.84
38227;BME280;24026;49.446;8.576;2023-03-22T08:15:52;100213.13;;;15.69;48.70
38227;BME280;24026;49.446;8.576;2023-03-22T08:18:12;100219.00;;;15.71;48.60
38227;BME280;24026;49.446;8.576;2023-03-22T08:20:33;100206.69;;;15.70;48.63
38227;BME280;24026;49.446;8.576;2023-03-22T08:22:53;100208.25;;;15.77;48.39
38227;BME280;24026;49.446;8.576;2023-03-22T08:25:14;100213.88;;;15.75;48.65
38227;BME280;24026;49.446;8.576;2023-03-22T08:27:35;100209.31;;;15.81;48.55
38227;BME280;24026;49.446;8.576;2023-03-22T08:29:55;100214.91;;;15.84;48.48
38227;BME280;24026;49.446;8.576;2023-03-22T08:32:17;100215.41;;;15.86;48.52
38227;BME280;24026;49.446;8.576;2023-03-22T08:34:39;100209.00;;;15.87;48.22
38227;BME280;24026;49.446;8.576;2023-03-22T08:37:03;100212.69;;;15.91;48.33
38227;BME280;24026;49.446;8.576;2023-03-22T08:39:23;100207.56;;;15.95;48.31
38227;BME280;24026;49.446;8.576;2023-03-22T08:41:44;100203.25;;;15.99;48.27
38227;BME280;24026;49.446;8.576;2023-03-22T08:44:04;100204.06;;;16.00;48.24
38227;BME280;24026;49.446;8.576;2023-03-22T08:46:25;100199.16;;;16.07;48.31
38227;BME280;24026;49.446;8.576;2023-03-22T08:48:46;100198.09;;;16.08;48.20
38227;BME280;24026;49.446;8.576;2023-03-22T08:51:09;100193.47;;;16.14;47.99
38227;BME280;24026;49.446;8.576;2023-03-22T08:53:31;100193.94;;;16.21;47.97
38227;BME280;24026;49.446;8.576;2023-03-22T08:55:52;100196.63;;;16.21;47.98
38227;BME280;24026;49.446;8.576;2023-03-22T08:58:14;100195.75;;;16.25;47.76
38227;BME280;24026;49.446;8.576;2023-03-22T09:00:41;100189.09;;;16.23;47.97
38227;BME280;24026;49.446;8.576;2023-03-22T09:03:02;100186.13;;;16.24;48.22
38227;BME280;24026;49.446;8.576;2023-03-22T09:05:23;100188.81;;;16.24;48.12
38227;BME280;24026;49.446;8.576;2023-03-22T09:07:43;100174.63;;;16.24;48.17
38227;BME280;24026;49.446;8.576;2023-03-22T09:10:04;100186.97;;;16.20;48.07
38227;BME280;24026;49.446;8.576;2023-03-22T09:12:24;100171.44;;;16.17;48.11
38227;BME280;24026;49.446;8.576;2023-03-22T09:14:45;100169.81;;;16.21;48.40
38227;BME280;24026;49.446;8.576;2023-03-22T09:17:07;100176.25;;;16.20;48.22
38227;BME280;24026;49.446;8.576;2023-03-22T09:19:27;100181.56;;;16.25;48.23
38227;BME280;24026;49.446;8.576;2023-03-22T09:21:48;100172.44;;;16.26;48.24
38227;BME280;24026;49.446;8.576;2023-03-22T09:24:09;100172.16;;;16.27;48.02
38227;BME280;24026;49.446;8.576;2023-03-22T09:26:29;100169.94;;;16.35;47.81
38227;BME280;24026;49.446;8.576;2023-03-22T09:28:50;100163.72;;;16.39;47.88
38227;BME280;24026;49.446;8.576;2023-03-22T09:31:10;100158.56;;;16.43;47.82
38227;BME280;24026;49.446;8.576;2023-03-22T09:33:31;100160.69;;;16.46;47.62
38227;BME280;24026;49.446;8.576;2023-03-22T09:35:53;100163.88;;;16.48;47.76
38227;BME280;24026;49.446;8.576;2023-03-22T09:38:14;100157.16;;;16.51;47.72
38227;BME280;24026;49.446;8.576;2023-03-22T09:40:38;100152.00;;;16.54;47.65
38227;BME280;24026;49.446;8.576;2023-03-22T09:43:03;100153.81;;;16.59;47.50
38227;BME280;24026;49.446;8.576;2023-03-22T09:45:38;100145.25;;;16.57;47.52
38227;BME280;24026;49.446;8.576;2023-03-22T09:48:03;100162.09;;;16.62;47.77
38227;BME280;24026;49.446;8.576;2023-03-22T09:50:30;100155.13;;;16.61;47.72
38227;BME280;24026;49.446;8.576;2023-03-22T09:52:52;100149.63;;;16.72;47.55
38227;BME280;24026;49.446;8.576;2023-03-22T09:55:36;100141.94;;;16.65;47.45
38227;BME280;24026;49.446;8.576;2023-03-22T09:58:06;100148.06;;;16.71;47.60
38227;BME280;24026;49.446;8.576;2023-03-22T10:01:03;100152.31;;;16.72;47.38
38227;BME280;24026;49.446;8.576;2023-03-22T10:06:19;100139.13;;;16.75;47.39
38227;BME280;24026;49.446;8.576;2023-03-22T10:11:24;100128.38;;;16.75;47.62
38227;BME280;24026;49.446;8.576;2023-03-22T10:16:27;100126.53;;;16.76;47.70
38227;BME280;24026;49.446;8.576;2023-03-22T10:18:50;100128.84;;;16.82;47.67
38227;BME280;24026;49.446;8.576;2023-03-22T10:21:13;100118.66;;;16.84;47.41
38227;BME280;24026;49.446;8.576;2023-03-22T10:23:39;100118.88;;;16.88;47.26
38227;BME280;24026;49.446;8.576;2023-03-22T10:26:03;100122.03;;;16.90;47.43
38227;BME280;24026;49.446;8.576;2023-03-22T10:28:39;100122.13;;;16.85;47.46
38227;BME280;24026;49.446;8.576;2023-03-22T10:31:00;100121.03;;;16.86;47.46
38227;BME280;24026;49.446;8.576;2023-03-22T10:33:35;100122.34;;;16.89;47.18
38227;BME280;24026;49.446;8.576;2023-03-22T10:35:56;100121.47;;;16.93;47.37
38227;BME280;24026;49.446;8.576;2023-03-22T10:38:20;100123.66;;;16.91;47.11
38227;BME280;24026;49.446;8.576;2023-03-22T10:40:43;100113.63;;;16.97;47.08
38227;BME280;24026;49.446;8.576;2023-03-22T10:43:12;100101.81;;;16.98;47.19
38227;BME280;24026;49.446;8.576;2023-03-22T10:45:36;100107.97;;;16.98;47.00
38227;BME280;24026;49.446;8.576;2023-03-22T10:48:03;100098.75;;;17.04;47.00
38227;BME280;24026;49.446;8.576;2023-03-22T10:50:41;100103.34;;;17.04;47.14
38227;BME280;24026;49.446;8.576;2023-03-22T10:53:03;100101.16;;;17.06;46.74
38227;BME280;24026;49.446;8.576;2023-03-22T10:55:25;100102.44;;;17.09;46.98
38227;BME280;24026;49.446;8.576;2023-03-22T10:57:53;100090.63;;;17.10;46.72
38227;BME280;24026;49.446;8.576;2023-03-22T11:00:15;100098.31;;;17.16;46.50
38227;BME280;24026;49.446;8.576;2023-03-22T11:02:46;100089.19;;;17.17;46.42
38227;BME280;24026;49.446;8.576;2023-03-22T11:05:19;100101.78;;;17.17;46.57
38227;BME280;24026;49.446;8.576;2023-03-22T11:07:43;100094.47;;;17.22;46.68
38227;BME280;24026;49.446;8.576;2023-03-22T11:12:30;100094.09;;;17.29;46.69
38227;BME280;24026;49.446;8.576;2023-03-22T11:14:51;100087.03;;;17.33;46.54
38227;BME280;24026;49.446;8.576;2023-03-22T11:17:22;100090.78;;;17.32;46.41
38227;BME280;24026;49.446;8.576;2023-03-22T11:19:53;100087.31;;;17.32;46.57
38227;BME280;24026;49.446;8.576;2023-03-22T11:22:37;100089.44;;;17.35;46.83
38227;BME280;24026;49.446;8.576;2023-03-22T11:24:58;100079.09;;;17.42;46.48
38227;BME280;24026;49.446;8.576;2023-03-22T11:27:28;100074.53;;;17.43;46.65
38227;BME280;24026;49.446;8.576;2023-03-22T11:29:57;100069.66;;;17.45;46.94
38227;BME280;24026;49.446;8.576;2023-03-22T11:34:44;100070.16;;;17.47;46.61
38227;BME280;24026;49.446;8.576;2023-03-22T11:37:06;100053.16;;;17.51;46.69
38227;BME280;24026;49.446;8.576;2023-03-22T11:39:28;100056.34;;;17.53;46.80
38227;BME280;24026;49.446;8.576;2023-03-22T11:41:50;100056.53;;;17.57;46.36
38227;BME280;24026;49.446;8.576;2023-03-22T11:44:15;100064.31;;;17.58;46.21
38227;BME280;24026;49.446;8.576;2023-03-22T11:46:37;100051.38;;;17.60;46.40
38227;BME280;24026;49.446;8.576;2023-03-22T11:49:00;100052.19;;;17.61;46.09
38227;BME280;24026;49.446;8.576;2023-03-22T11:51:30;100056.75;;;17.60;46.11
38227;BME280;24026;49.446;8.576;2023-03-22T11:53:55;100042.41;;;17.65;46.16
38227;BME280;24026;49.446;8.576;2023-03-22T11:56:24;100041.03;;;17.68;46.05
38227;BME280;24026;49.446;8.576;2023-03-22T11:59:05;100046.63;;;17.57;46.16
38227;BME280;24026;49.446;8.576;2023-03-22T12:01:33;100047.50;;;17.67;46.19
38227;BME280;24026;49.446;8.576;2023-03-22T12:03:55;100049.50;;;17.61;46.33
38227;BME280;24026;49.446;8.576;2023-03-22T12:06:38;100037.94;;;17.60;45.96
38227;BME280;24026;49.446;8.576;2023-03-22T12:09:09;100039.25;;;17.77;45.63
38227;BME280;24026;49.446;8.576;2023-03-22T12:11:36;100034.88;;;17.81;46.35
38227;BME280;24026;49.446;8.576;2023-03-22T12:14:16;100027.91;;;17.80;45.94
38227;BME280;24026;49.446;8.576;2023-03-22T12:16:58;100018.16;;;17.84;45.90
38227;BME280;24026;49.446;8.576;2023-03-22T12:21:59;100013.41;;;17.95;45.94
38227;BME280;24026;49.446;8.576;2023-03-22T12:24:29;100011.19;;;17.97;45.82
38227;BME280;24026;49.446;8.576;2023-03-22T12:26:54;100006.03;;;18.01;46.01
38227;BME280;24026;49.446;8.576;2023-03-22T12:29:17;100002.44;;;18.05;45.55
38227;BME280;24026;49.446;8.576;2023-03-22T12:31:42;99993.47;;;18.10;45.52
38227;BME280;24026;49.446;8.576;2023-03-22T12:34:08;100007.41;;;18.12;45.33
38227;BME280;24026;49.446;8.576;2023-03-22T12:36:44;99983.69;;;18.14;45.65
38227;BME280;24026;49.446;8.576;2023-03-22T12:39:08;99981.53;;;18.16;45.60
38227;BME280;24026;49.446;8.576;2023-03-22T12:41:38;99981.31;;;18.12;45.71
38227;BME280;24026;49.446;8.576;2023-03-22T12:44:26;99987.97;;;18.15;45.75
38227;BME280;24026;49.446;8.576;2023-03-22T12:46:55;99974.84;;;18.13;45.78
38227;BME280;24026;49.446;8.576;2023-03-22T12:52:17;99980.28;;;18.22;45.43
38227;BME280;24026;49.446;8.576;2023-03-22T12:54:38;99971.06;;;18.14;45.23
38227;BME280;24026;49.446;8.576;2023-03-22T12:56:59;99967.84;;;18.26;45.44
38227;BME280;24026;49.446;8.576;2023-03-22T12:59:23;99958.38;;;18.29;45.06
38227;BME280;24026;49.446;8.576;2023-03-22T13:04:44;99956.38;;;18.35;44.81
38227;BME280;24026;49.446;8.576;2023-03-22T13:07:49;99952.38;;;18.32;44.53
38227;BME280;24026;49.446;8.576;2023-03-22T13:10:38;99951.00;;;18.35;44.63
38227;BME280;24026;49.446;8.576;2023-03-22T13:13:31;99940.09;;;18.40;44.46
38227;BME280;24026;49.446;8.576;2023-03-22T13:21:17;99939.38;;;18.48;44.33
38227;BME280;24026;49.446;8.576;2023-03-22T13:29:20;99920.84;;;18.46;43.99
38227;BME280;24026;49.446;8.576;2023-03-22T13:31:52;99930.00;;;18.45;44.06
38227;BME280;24026;49.446;8.576;2023-03-22T13:34:17;99925.63;;;18.49;44.08
38227;BME280;24026;49.446;8.576;2023-03-22T13:36:38;99931.19;;;18.53;43.60